sensor_id;sensor_type;location;lat;lon;timestamp;pressure;altitude;pressure_sealevel;temperature;humidity
32761;BME280;19126;47.472;7.850;2023-09-19T00:00:57;96496.97;;;16.64;100.00
32761;BME280;19126;47.472;7.850;2023-09-19T00:03:25;96498.44;;;16.60;100.00
32761;BME280;19126;47.472;7.850;2023-09-19T00:05:54;96496.44;;;16.55;100.00
32761;BME280;19126;47.472;7.850;2023-09-19T00:08:22;96500.56;;;16.51;100.00
32761;BME280;19126;47.472;7.850;2023-09-19T00:10:49;96501.19;;;16.47;100.00
32761;BME280;19126;47.472;7.850;2023-09-19T00:13:17;96500.22;;;16.41;100.00
32761;BME280;19126;47.472;7.850;2023-09-19T00:15:46;96503.13;;;16.33;100.00
32761;BME280;19126;47.472;7.850;2023-09-19T00:18:16;96502.72;;;16.29;100.00
32761;BME280;19126;47.472;7.850;2023-09-19T00:20:46;96502.34;;;16.25;100.00
32761;BME280;19126;47.472;7.850;2023-09-19T00:23:15;96509.91;;;16.22;100.00
32761;BME280;19126;47.472;7.850;2023-09-19T00:25:42;96505.50;;;16.09;100.00
32761;BME280;19126;47.472;7.850;2023-09-19T00:28:11;96500.41;;;16.46;100.00
32761;BME280;19126;47.472;7.850;2023-09-19T00:30:38;96500.41;;;16.39;100.00
32761;BME280;19126;47.472;7.850;2023-09-19T00:33:06;96494.16;;;16.34;100.00
32761;BME280;19126;47.472;7.850;2023-09-19T00:35:34;96501.53;;;16.25;100.00
32761;BME280;19126;47.472;7.850;2023-09-19T00:38:04;96497.75;;;16.14;100.00
32761;BME280;19126;47.472;7.850;2023-09-19T00:40:32;96503.09;;;16.01;100.00
32761;BME280;19126;47.472;7.850;2023-09-19T00:43:01;96508.44;;;15.94;100.00
32761;BME280;19126;47.472;7.850;2023-09-19T00:45:28;96503.97;;;15.88;100.00
32761;BME280;19126;47.472;7.850;2023-09-19T00:47:56;96499.31;;;15.76;100.00
32761;BME280;19126;47.472;7.850;2023-09-19T00:50:25;96512.56;;;15.70;100.00
32761;BME280;19126;47.472;7.850;2023-09-19T00:52:55;96517.06;;;15.62;100.00
32761;BME280;19126;47.472;7.850;2023-09-19T00:55:25;96504.47;;;15.58;100.00
32761;BME280;19126;47.472;7.850;2023-09-19T00:57:56;96516.28;;;15.55;100.00
32761;BME280;19126;47.472;7.850;2023-09-19T01:00:24;96508.97;;;15.50;100.00
32761;BME280;19126;47.472;7.850;2023-09-19T01:02:52;96508.97;;;15.44;100.00
32761;BME280;19126;47.472;7.850;2023-09-19T01:05:20;96510.03;;;15.36;100.00
32761;BME280;19126;47.472;7.850;2023-09-19T01:07:47;96512.91;;;15.28;100.00
32761;BME280;19126;47.472;7.850;2023-09-19T01:10:17;96521.84;;;15.20;100.00
32761;BME280;19126;47.472;7.850;2023-09-19T01:12:55;96518.81;;;15.09;100.00
32761;BME280;19126;47.472;7.850;2023-09-19T01:15:40;96518.00;;;15.02;100.00
32761;BME280;19126;47.472;7.850;2023-09-19T01:18:21;96523.91;;;14.91;100.00
32761;BME280;19126;47.472;7.850;2023-09-19T01:21:09;96524.94;;;14.83;100.00
32761;BME280;19126;47.472;7.850;2023-09-19T01:24:00;96519.03;;;14.74;100.00
32761;BME280;19126;47.472;7.850;2023-09-19T01:27:00;96522.88;;;14.65;100.00
32761;BME280;19126;47.472;7.850;2023-09-19T01:29:38;96519.22;;;14.59;100.00
32761;BME280;19126;47.472;7.850;2023-09-19T01:32:08;96515.09;;;14.50;100.00
32761;BME280;19126;47.472;7.850;2023-09-19T01:34:46;96516.75;;;14.44;100.00
32761;BME280;19126;47.472;7.850;2023-09-19T01:37:15;96519.38;;;14.38;100.00
32761;BME280;19126;47.472;7.850;2023-09-19T01:39:47;96514.69;;;14.33;100.00
32761;BME280;19126;47.472;7.850;2023-09-19T01:42:26;96512.84;;;14.27;100.00
32761;BME280;19126;47.472;7.850;2023-09-19T01:45:06;96518.31;;;14.25;100.00
32761;BME280;19126;47.472;7.850;2023-09-19T01:47:48;96520.34;;;14.23;100.00
32761;BME280;19126;47.472;7.850;2023-09-19T01:50:22;96521.56;;;14.20;100.00
32761;BME280;19126;47.472;7.850;2023-09-19T01:53:02;96523.97;;;14.09;100.00
32761;BME280;19126;47.472;7.850;2023-09-19T01:55:32;96520.09;;;14.04;100.00
32761;BME280;19126;47.472;7.850;2023-09-19T01:58:08;96516.84;;;14.02;100.00
32761;BME280;19126;47.472;7.850;2023-09-19T02:00:42;96515.44;;;14.00;100.00
32761;BME280;19126;47.472;7.850;2023-09-19T02:03:12;96512.34;;;13.96;100.00
32761;BME280;19126;47.472;7.850;2023-09-19T02:05:39;96508.47;;;13.92;100.00
32761;BME280;19126;47.472;7.850;2023-09-19T02:08:07;96518.81;;;13.87;100.00
32761;BME280;19126;47.472;7.850;2023-09-19T02:10:34;96522.25;;;13.81;100.00
32761;BME280;19126;47.472;7.850;2023-09-19T02:13:02;96523.25;;;13.80;98.49
32761;BME280;19126;47.472;7.850;2023-09-19T02:15:31;96529.38;;;13.80;98.49
32761;BME280;19126;47.472;7.850;2023-09-19T02:18:00;96537.06;;;13.75;97.71
32761;BME280;19126;47.472;7.850;2023-09-19T02:20:30;96534.78;;;13.65;97.02
32761;BME280;19126;47.472;7.850;2023-09-19T02:22:58;96533.53;;;13.61;96.12
32761;BME280;19126;47.472;7.850;2023-09-19T02:25:26;96539.44;;;13.63;94.96
32761;BME280;19126;47.472;7.850;2023-09-19T02:27:53;96540.25;;;13.63;94.95
32761;BME280;19126;47.472;7.850;2023-09-19T02:30:24;96552.06;;;13.68;93.53
32761;BME280;19126;47.472;7.850;2023-09-19T02:32:51;96554.09;;;13.72;91.54
32761;BME280;19126;47.472;7.850;2023-09-19T02:35:19;96548.63;;;13.74;90.53
32761;BME280;19126;47.472;7.850;2023-09-19T02:37:48;96547.63;;;13.75;89.51
32761;BME280;19126;47.472;7.850;2023-09-19T02:40:16;96546.41;;;13.77;89.11
32761;BME280;19126;47.472;7.850;2023-09-19T02:42:48;96544.19;;;13.81;89.77
32761;BME280;19126;47.472;7.850;2023-09-19T02:45:17;96547.25;;;13.85;89.65
32761;BME280;19126;47.472;7.850;2023-09-19T02:47:47;96545.66;;;13.90;89.21
32761;BME280;19126;47.472;7.850;2023-09-19T02:50:16;96544.66;;;13.91;90.00
32761;BME280;19126;47.472;7.850;2023-09-19T02:52:44;96545.06;;;13.95;88.04
32761;BME280;19126;47.472;7.850;2023-09-19T02:55:15;96542.03;;;13.98;87.74
32761;BME280;19126;47.472;7.850;2023-09-19T02:57:47;96544.09;;;14.03;86.51
32761;BME280;19126;47.472;7.850;2023-09-19T03:00:16;96545.72;;;14.04;87.08
32761;BME280;19126;47.472;7.850;2023-09-19T03:02:46;96547.97;;;14.07;85.41
32761;BME280;19126;47.472;7.850;2023-09-19T03:05:14;96558.31;;;14.09;84.24
32761;BME280;19126;47.472;7.850;2023-09-19T03:07:41;96554.47;;;14.11;84.38
32761;BME280;19126;47.472;7.850;2023-09-19T03:10:11;96558.94;;;14.11;84.57
32761;BME280;19126;47.472;7.850;2023-09-19T03:12:43;96559.13;;;14.09;83.74
32761;BME280;19126;47.472;7.850;2023-09-19T03:15:10;96561.78;;;14.16;84.29
32761;BME280;19126;47.472;7.850;2023-09-19T03:17:43;96560.78;;;14.17;83.90
32761;BME280;19126;47.472;7.850;2023-09-19T03:20:12;96558.13;;;14.17;83.20
32761;BME280;19126;47.472;7.850;2023-09-19T03:22:40;96560.38;;;14.20;82.41
32761;BME280;19126;47.472;7.850;2023-09-19T03:25:08;96549.84;;;14.27;82.81
32761;BME280;19126;47.472;7.850;2023-09-19T03:27:37;96555.13;;;14.27;83.31
32761;BME280;19126;47.472;7.850;2023-09-19T03:30:08;96546.41;;;14.33;84.39
32761;BME280;19126;47.472;7.850;2023-09-19T03:32:35;96556.34;;;14.31;84.33
32761;BME280;19126;47.472;7.850;2023-09-19T03:35:03;96553.91;;;14.29;84.05
32761;BME280;19126;47.472;7.850;2023-09-19T03:37:32;96556.53;;;14.29;83.99
32761;BME280;19126;47.472;7.850;2023-09-19T03:39:59;96552.88;;;14.30;82.67
32761;BME280;19126;47.472;7.850;2023-09-19T03:42:30;96560.63;;;14.32;83.75
32761;BME280;19126;47.472;7.850;2023-09-19T03:44:58;96553.31;;;14.34;82.94
32761;BME280;19126;47.472;7.850;2023-09-19T03:47:28;96551.28;;;14.36;83.30
32761;BME280;19126;47.472;7.850;2023-09-19T03:49:55;96550.28;;;14.37;82.47
32761;BME280;19126;47.472;7.850;2023-09-19T03:52:22;96549.88;;;14.40;82.42
32761;BME280;19126;47.472;7.850;2023-09-19T03:54:50;96547.84;;;14.42;82.18
32761;BME280;19126;47.472;7.850;2023-09-19T03:57:18;96549.06;;;14.46;81.66
32761;BME280;19126;47.472;7.850;2023-09-19T03:59:46;96545.81;;;14.44;82.21
32761;BME280;19126;47.472;7.850;2023-09-19T04:02:14;96540.94;;;14.48;81.43
32761;BME280;19126;47.472;7.850;2023-09-19T04:04:49;96546.22;;;14.48;82.21
32761;BME280;19126;47.472;7.850;2023-09-19T04:07:17;96547.03;;;14.48;81.52
32761;BME280;19126;47.472;7.850;2023-09-19T04:09:45;96552.94;;;14.50;83.61
32761;BME280;19126;47.472;7.850;2023-09-19T04:12:12;96557.59;;;14.55;84.05
32761;BME280;19126;47.472;7.850;2023-09-19T04:14:42;96555.97;;;14.54;83.51
32761;BME280;19126;47.472;7.850;2023-09-19T04:17:10;96564.75;;;14.55;82.66
32761;BME280;19126;47.472;7.850;2023-09-19T04:19:37;96558.44;;;14.56;82.69
32761;BME280;19126;47.472;7.850;2023-09-19T04:22:06;96553.16;;;14.56;83.39
32761;BME280;19126;47.472;7.850;2023-09-19T04:24:33;96557.44;;;14.57;82.75
32761;BME280;19126;47.472;7.850;2023-09-19T04:27:00;96570.47;;;14.58;82.45
32761;BME280;19126;47.472;7.850;2023-09-19T04:29:27;96572.09;;;14.66;82.05
32761;BME280;19126;47.472;7.850;2023-09-19T04:31:55;96572.28;;;14.64;82.13
32761;BME280;19126;47.472;7.850;2023-09-19T04:34:23;96575.56;;;14.67;80.79
32761;BME280;19126;47.472;7.850;2023-09-19T04:36:51;96585.28;;;14.66;79.06
32761;BME280;19126;47.472;7.850;2023-09-19T04:39:21;96592.44;;;14.65;77.80
32761;BME280;19126;47.472;7.850;2023-09-19T04:41:51;96588.97;;;14.65;78.18
32761;BME280;19126;47.472;7.850;2023-09-19T04:44:19;96582.88;;;14.64;77.89
32761;BME280;19126;47.472;7.850;2023-09-19T04:46:46;96588.16;;;14.64;77.62
32761;BME280;19126;47.472;7.850;2023-09-19T04:49:14;96584.28;;;14.60;76.97
32761;BME280;19126;47.472;7.850;2023-09-19T04:51:41;96584.66;;;14.57;77.86
32761;BME280;19126;47.472;7.850;2023-09-19T04:54:08;96587.69;;;14.54;78.14
32761;BME280;19126;47.472;7.850;2023-09-19T04:56:37;96589.94;;;14.50;79.12
32761;BME280;19126;47.472;7.850;2023-09-19T04:59:06;96605.19;;;14.48;79.13
32761;BME280;19126;47.472;7.850;2023-09-19T05:01:33;96593.16;;;14.46;79.44
32761;BME280;19126;47.472;7.850;2023-09-19T05:04:00;96595.19;;;14.44;79.90
32761;BME280;19126;47.472;7.850;2023-09-19T05:06:31;96607.00;;;14.41;80.32
32761;BME280;19126;47.472;7.850;2023-09-19T05:09:01;96608.81;;;14.41;80.06
32761;BME280;19126;47.472;7.850;2023-09-19T05:11:31;96596.44;;;14.41;79.64
32761;BME280;19126;47.472;7.850;2023-09-19T05:14:00;96601.50;;;14.43;79.42
32761;BME280;19126;47.472;7.850;2023-09-19T05:16:30;96612.28;;;14.48;80.52
32761;BME280;19126;47.472;7.850;2023-09-19T05:18:58;96617.78;;;14.53;81.26
32761;BME280;19126;47.472;7.850;2023-09-19T05:21:26;96610.28;;;14.57;81.85
32761;BME280;19126;47.472;7.850;2023-09-19T05:23:54;96613.38;;;14.60;81.71
32761;BME280;19126;47.472;7.850;2023-09-19T05:26:22;96612.13;;;14.63;81.78
32761;BME280;19126;47.472;7.850;2023-09-19T05:28:49;96621.28;;;14.67;82.89
32761;BME280;19126;47.472;7.850;2023-09-19T05:31:18;96620.13;;;14.70;83.22
32761;BME280;19126;47.472;7.850;2023-09-19T05:33:46;96619.72;;;14.73;83.28
32761;BME280;19126;47.472;7.850;2023-09-19T05:36:13;96628.88;;;14.77;84.31
32761;BME280;19126;47.472;7.850;2023-09-19T05:38:42;96625.00;;;14.79;85.00
32761;BME280;19126;47.472;7.850;2023-09-19T05:41:10;96634.16;;;14.84;86.00
32761;BME280;19126;47.472;7.850;2023-09-19T05:43:39;96636.84;;;14.90;86.12
32761;BME280;19126;47.472;7.850;2023-09-19T05:46:07;96642.34;;;14.96;86.61
32761;BME280;19126;47.472;7.850;2023-09-19T05:48:36;96643.34;;;15.01;85.71
32761;BME280;19126;47.472;7.850;2023-09-19T05:51:05;96654.97;;;15.07;87.57
32761;BME280;19126;47.472;7.850;2023-09-19T05:53:33;96660.03;;;15.08;89.22
32761;BME280;19126;47.472;7.850;2023-09-19T05:56:00;96655.97;;;15.13;90.21
32761;BME280;19126;47.472;7.850;2023-09-19T05:58:27;96658.03;;;15.17;88.69
32761;BME280;19126;47.472;7.850;2023-09-19T06:00:55;96655.78;;;15.21;85.72
32761;BME280;19126;47.472;7.850;2023-09-19T06:03:23;96661.09;;;15.28;83.39
32761;BME280;19126;47.472;7.850;2023-09-19T06:05:52;96666.59;;;15.33;81.27
32761;BME280;19126;47.472;7.850;2023-09-19T06:08:23;96665.34;;;15.35;81.86
32761;BME280;19126;47.472;7.850;2023-09-19T06:10:52;96663.53;;;15.36;83.15
32761;BME280;19126;47.472;7.850;2023-09-19T06:13:20;96666.56;;;15.39;83.72
32761;BME280;19126;47.472;7.850;2023-09-19T06:15:47;96672.88;;;15.38;84.75
32761;BME280;19126;47.472;7.850;2023-09-19T06:18:15;96675.13;;;15.42;86.44
32761;BME280;19126;47.472;7.850;2023-09-19T06:20:46;96675.75;;;15.44;88.19
32761;BME280;19126;47.472;7.850;2023-09-19T06:23:15;96666.59;;;15.46;88.69
32761;BME280;19126;47.472;7.850;2023-09-19T06:25:43;96666.97;;;15.50;88.69
32761;BME280;19126;47.472;7.850;2023-09-19T06:28:10;96665.78;;;15.52;87.55
32761;BME280;19126;47.472;7.850;2023-09-19T06:30:39;96666.38;;;15.55;87.53
32761;BME280;19126;47.472;7.850;2023-09-19T06:33:07;96664.13;;;15.58;85.92
32761;BME280;19126;47.472;7.850;2023-09-19T06:35:37;96670.84;;;15.61;85.21
32761;BME280;19126;47.472;7.850;2023-09-19T06:38:05;96677.56;;;15.70;85.13
32761;BME280;19126;47.472;7.850;2023-09-19T06:40:35;96673.09;;;15.91;84.15
32761;BME280;19126;47.472;7.850;2023-09-19T06:43:04;96675.06;;;16.22;89.91
32761;BME280;19126;47.472;7.850;2023-09-19T06:45:32;96678.47;;;16.43;100.00
32761;BME280;19126;47.472;7.850;2023-09-19T06:47:59;96680.44;;;16.54;100.00
32761;BME280;19126;47.472;7.850;2023-09-19T06:50:29;96680.25;;;16.88;100.00
32761;BME280;19126;47.472;7.850;2023-09-19T06:52:57;96682.16;;;17.20;100.00
32761;BME280;19126;47.472;7.850;2023-09-19T06:55:26;96687.00;;;17.30;100.00
32761;BME280;19126;47.472;7.850;2023-09-19T06:57:58;96687.00;;;17.30;100.00
32761;BME280;19126;47.472;7.850;2023-09-19T07:00:25;96692.06;;;17.31;100.00
32761;BME280;19126;47.472;7.850;2023-09-19T07:03:05;96692.41;;;17.41;100.00
32761;BME280;19126;47.472;7.850;2023-09-19T07:05:35;96700.09;;;17.50;100.00
32761;BME280;19126;47.472;7.850;2023-09-19T07:08:04;96690.94;;;17.46;100.00
32761;BME280;19126;47.472;7.850;2023-09-19T07:10:32;96702.88;;;17.36;100.00
32761;BME280;19126;47.472;7.850;2023-09-19T07:13:03;96694.72;;;17.31;100.00
32761;BME280;19126;47.472;7.850;2023-09-19T07:15:33;96699.69;;;17.27;100.00
32761;BME280;19126;47.472;7.850;2023-09-19T07:18:02;96699.91;;;17.51;100.00
32761;BME280;19126;47.472;7.850;2023-09-19T07:20:29;96698.94;;;17.71;100.00
32761;BME280;19126;47.472;7.850;2023-09-19T07:22:58;96705.28;;;18.14;100.00
32761;BME280;19126;47.472;7.850;2023-09-19T07:25:26;96702.28;;;18.48;100.00
32761;BME280;19126;47.472;7.850;2023-09-19T07:27:55;96708.16;;;18.68;100.00
32761;BME280;19126;47.472;7.850;2023-09-19T07:30:27;96715.50;;;19.03;100.00
32761;BME280;19126;47.472;7.850;2023-09-19T07:32:55;96708.22;;;19.41;100.00
32761;BME280;19126;47.472;7.850;2023-09-19T07:35:22;96713.56;;;19.53;100.00
32761;BME280;19126;47.472;7.850;2023-09-19T07:37:50;96717.50;;;19.51;100.00
32761;BME280;19126;47.472;7.850;2023-09-19T07:40:18;96719.97;;;19.76;100.00
32761;BME280;19126;47.472;7.850;2023-09-19T07:42:46;96724.38;;;19.82;100.00
32761;BME280;19126;47.472;7.850;2023-09-19T07:45:14;96727.53;;;19.91;100.00
32761;BME280;19126;47.472;7.850;2023-09-19T07:47:46;96721.06;;;19.99;99.43
32761;BME280;19126;47.472;7.850;2023-09-19T07:50:13;96728.53;;;19.78;98.82
32761;BME280;19126;47.472;7.850;2023-09-19T07:52:42;96730.25;;;19.48;99.06
32761;BME280;19126;47.472;7.850;2023-09-19T07:55:09;96731.81;;;19.26;100.00
32761;BME280;19126;47.472;7.850;2023-09-19T07:57:38;96727.25;;;19.14;100.00
32761;BME280;19126;47.472;7.850;2023-09-19T08:00:08;96735.78;;;19.04;100.00
32761;BME280;19126;47.472;7.850;2023-09-19T08:02:38;96728.63;;;19.05;100.00
32761;BME280;19126;47.472;7.850;2023-09-19T08:05:08;96743.56;;;19.06;100.00
32761;BME280;19126;47.472;7.850;2023-09-19T08:07:37;96745.97;;;19.08;100.00
32761;BME280;19126;47.472;7.850;2023-09-19T08:10:06;96743.44;;;19.13;100.00
32761;BME280;19126;47.472;7.850;2023-09-19T08:12:39;96746.06;;;19.01;100.00
32761;BME280;19126;47.472;7.850;2023-09-19T08:15:13;96747.31;;;18.98;100.00
32761;BME280;19126;47.472;7.850;2023-09-19T08:17:41;96745.84;;;19.02;100.00
32761;BME280;19126;47.472;7.850;2023-09-19T08:20:14;96750.06;;;19.10;100.00
32761;BME280;19126;47.472;7.850;2023-09-19T08:22:48;96748.63;;;19.38;100.00
32761;BME280;19126;47.472;7.850;2023-09-19T08:25:16;96741.50;;;19.62;100.00
32761;BME280;19126;47.472;7.850;2023-09-19T08:27:44;96741.16;;;19.59;99.44
32761;BME280;19126;47.472;7.850;2023-09-19T08:30:15;96740.13;;;19.60;99.71
32761;BME280;19126;47.472;7.850;2023-09-19T08:32:42;96745.16;;;19.92;100.00
32761;BME280;19126;47.472;7.850;2023-09-19T08:35:10;96750.00;;;20.43;100.00
32761;BME280;19126;47.472;7.850;2023-09-19T08:37:39;96746.69;;;20.76;98.47
32761;BME280;19126;47.472;7.850;2023-09-19T08:40:07;96746.84;;;21.11;92.65
32761;BME280;19126;47.472;7.850;2023-09-19T08:42:48;96751.56;;;21.49;90.59
32761;BME280;19126;47.472;7.850;2023-09-19T08:45:17;96751.75;;;21.94;94.92
32761;BME280;19126;47.472;7.850;2023-09-19T08:47:50;96758.13;;;22.27;91.87
32761;BME280;19126;47.472;7.850;2023-09-19T08:50:27;96767.56;;;22.69;91.04
32761;BME280;19126;47.472;7.850;2023-09-19T08:53:01;96769.34;;;22.86;87.85
32761;BME280;19126;47.472;7.850;2023-09-19T08:55:34;96763.28;;;22.95;87.34
32761;BME280;19126;47.472;7.850;2023-09-19T08:58:04;96770.66;;;23.05;84.64
32761;BME280;19126;47.472;7.850;2023-09-19T09:00:35;96759.44;;;22.86;82.51
32761;BME280;19126;47.472;7.850;2023-09-19T09:03:04;96764.34;;;22.94;83.72
32761;BME280;19126;47.472;7.850;2023-09-19T09:05:33;96764.44;;;22.77;83.83
32761;BME280;19126;47.472;7.850;2023-09-19T09:08:07;96764.97;;;22.40;82.89
32761;BME280;19126;47.472;7.850;2023-09-19T09:10:35;96763.19;;;22.06;83.75
32761;BME280;19126;47.472;7.850;2023-09-19T09:13:06;96757.88;;;21.60;84.64
32761;BME280;19126;47.472;7.850;2023-09-19T09:15:36;96759.91;;;21.24;85.83
32761;BME280;19126;47.472;7.850;2023-09-19T09:18:04;96765.44;;;21.05;88.37
32761;BME280;19126;47.472;7.850;2023-09-19T09:20:31;96764.47;;;20.83;91.71
32761;BME280;19126;47.472;7.850;2023-09-19T09:22:59;96764.81;;;20.62;91.96
32761;BME280;19126;47.472;7.850;2023-09-19T09:25:50;96757.91;;;20.38;93.48
32761;BME280;19126;47.472;7.850;2023-09-19T09:28:22;96757.91;;;20.38;96.36
32761;BME280;19126;47.472;7.850;2023-09-19T09:30:50;96759.94;;;20.83;92.15
32761;BME280;19126;47.472;7.850;2023-09-19T09:33:18;96757.91;;;21.02;89.90
32761;BME280;19126;47.472;7.850;2023-09-19T09:35:53;96754.06;;;21.39;89.83
32761;BME280;19126;47.472;7.850;2023-09-19T09:38:24;96755.97;;;21.73;87.71
32761;BME280;19126;47.472;7.850;2023-09-19T09:40:56;96763.16;;;21.89;85.64
32761;BME280;19126;47.472;7.850;2023-09-19T09:43:30;96767.94;;;22.21;84.70
32761;BME280;19126;47.472;7.850;2023-09-19T09:46:13;96759.88;;;22.78;84.33
32761;BME280;19126;47.472;7.850;2023-09-19T09:49:02;96758.66;;;23.35;81.49
32761;BME280;19126;47.472;7.850;2023-09-19T09:51:43;96757.22;;;23.55;80.33
32761;BME280;19126;47.472;7.850;2023-09-19T09:54:15;96757.34;;;23.38;73.06
32761;BME280;19126;47.472;7.850;2023-09-19T09:56:55;96759.97;;;23.33;73.75
32761;BME280;19126;47.472;7.850;2023-09-19T10:00:00;96750.97;;;22.94;74.98
32761;BME280;19126;47.472;7.850;2023-09-19T10:02:42;96746.56;;;22.44;77.00
32761;BME280;19126;47.472;7.850;2023-09-19T10:05:14;96748.19;;;22.05;78.49
32761;BME280;19126;47.472;7.850;2023-09-19T10:07:48;96750.47;;;21.79;82.59
32761;BME280;19126;47.472;7.850;2023-09-19T10:10:31;96744.19;;;21.57;81.09
32761;BME280;19126;47.472;7.850;2023-09-19T10:13:12;96746.44;;;21.48;81.90
32761;BME280;19126;47.472;7.850;2023-09-19T10:15:43;96739.59;;;21.86;80.56
32761;BME280;19126;47.472;7.850;2023-09-19T10:18:15;96743.69;;;22.28;81.41
32761;BME280;19126;47.472;7.850;2023-09-19T10:20:45;96749.03;;;22.90;80.84
32761;BME280;19126;47.472;7.850;2023-09-19T10:23:14;96741.34;;;23.21;76.18
32761;BME280;19126;47.472;7.850;2023-09-19T10:25:47;96740.13;;;23.61;73.58
32761;BME280;19126;47.472;7.850;2023-09-19T10:28:17;96746.16;;;23.79;70.36
32761;BME280;19126;47.472;7.850;2023-09-19T10:30:49;96733.88;;;23.88;70.53
32761;BME280;19126;47.472;7.850;2023-09-19T10:33:19;96735.25;;;23.91;69.28
32761;BME280;19126;47.472;7.850;2023-09-19T10:35:48;96740.75;;;23.74;70.01
32761;BME280;19126;47.472;7.850;2023-09-19T10:38:19;96736.88;;;23.59;67.75
32761;BME280;19126;47.472;7.850;2023-09-19T10:40:50;96733.16;;;23.60;72.29
32761;BME280;19126;47.472;7.850;2023-09-19T10:43:21;96735.69;;;23.45;74.98
32761;BME280;19126;47.472;7.850;2023-09-19T10:45:50;96737.31;;;23.46;75.88
32761;BME280;19126;47.472;7.850;2023-09-19T10:48:20;96735.72;;;23.22;77.21
32761;BME280;19126;47.472;7.850;2023-09-19T10:50:57;96740.81;;;22.96;77.43
32761;BME280;19126;47.472;7.850;2023-09-19T10:53:27;96731.91;;;22.91;76.47
32761;BME280;19126;47.472;7.850;2023-09-19T10:55:59;96733.03;;;22.73;80.52
32761;BME280;19126;47.472;7.850;2023-09-19T10:58:32;96731.50;;;22.54;84.46
32761;BME280;19126;47.472;7.850;2023-09-19T11:01:04;96738.06;;;22.47;83.37
32761;BME280;19126;47.472;7.850;2023-09-19T11:03:38;96729.63;;;22.38;84.05
32761;BME280;19126;47.472;7.850;2023-09-19T11:06:12;96728.13;;;22.25;82.86
32761;BME280;19126;47.472;7.850;2023-09-19T11:09:08;96723.69;;;22.14;85.20
32761;BME280;19126;47.472;7.850;2023-09-19T11:11:49;96719.81;;;22.04;85.93
32761;BME280;19126;47.472;7.850;2023-09-19T11:14:47;96712.41;;;22.12;86.22
32761;BME280;19126;47.472;7.850;2023-09-19T11:17:42;96708.94;;;22.50;82.44
32761;BME280;19126;47.472;7.850;2023-09-19T11:20:25;96709.00;;;22.78;78.99
32761;BME280;19126;47.472;7.850;2023-09-19T11:23:23;96713.84;;;23.31;79.42
32761;BME280;19126;47.472;7.850;2023-09-19T11:25:52;96709.97;;;23.81;75.65
32761;BME280;19126;47.472;7.850;2023-09-19T11:28:31;96707.47;;;24.02;73.36
32761;BME280;19126;47.472;7.850;2023-09-19T11:30:59;96702.78;;;24.30;69.24
32761;BME280;19126;47.472;7.850;2023-09-19T11:33:46;96702.75;;;24.25;66.63
32761;BME280;19126;47.472;7.850;2023-09-19T11:36:16;96702.66;;;24.04;69.32
32761;BME280;19126;47.472;7.850;2023-09-19T11:39:00;96705.72;;;23.85;65.47
32761;BME280;19126;47.472;7.850;2023-09-19T11:41:40;96703.97;;;23.69;64.19
32761;BME280;19126;47.472;7.850;2023-09-19T11:44:32;96712.03;;;23.36;68.28
32761;BME280;19126;47.472;7.850;2023-09-19T11:47:06;96700.59;;;23.19;67.97
32761;BME280;19126;47.472;7.850;2023-09-19T11:49:35;96699.31;;;22.99;67.91
32761;BME280;19126;47.472;7.850;2023-09-19T11:52:09;96694.66;;;22.89;70.84
32761;BME280;19126;47.472;7.850;2023-09-19T11:54:37;96683.78;;;22.74;75.51
32761;BME280;19126;47.472;7.850;2023-09-19T11:57:08;96684.94;;;22.56;77.80
32761;BME280;19126;47.472;7.850;2023-09-19T11:59:39;96680.25;;;22.46;81.24
32761;BME280;19126;47.472;7.850;2023-09-19T12:02:08;96682.63;;;22.25;80.95
32761;BME280;19126;47.472;7.850;2023-09-19T12:04:40;96680.88;;;22.14;82.75
32761;BME280;19126;47.472;7.850;2023-09-19T12:07:11;96673.13;;;22.34;80.14
32761;BME280;19126;47.472;7.850;2023-09-19T12:09:42;96673.94;;;22.57;77.26
32761;BME280;19126;47.472;7.850;2023-09-19T12:12:19;96670.34;;;22.96;73.58
32761;BME280;19126;47.472;7.850;2023-09-19T12:14:48;96679.22;;;23.24;71.10
32761;BME280;19126;47.472;7.850;2023-09-19T12:17:18;96673.13;;;23.34;65.19
32761;BME280;19126;47.472;7.850;2023-09-19T12:19:50;96669.00;;;23.53;64.13
32761;BME280;19126;47.472;7.850;2023-09-19T12:22:18;96671.66;;;23.53;62.97
32761;BME280;19126;47.472;7.850;2023-09-19T12:24:46;96662.97;;;23.74;67.28
32761;BME280;19126;47.472;7.850;2023-09-19T12:27:14;96669.00;;;23.91;65.88
32761;BME280;19126;47.472;7.850;2023-09-19T12:29:44;96661.66;;;24.19;65.38
32761;BME280;19126;47.472;7.850;2023-09-19T12:32:12;96663.28;;;24.25;60.87
32761;BME280;19126;47.472;7.850;2023-09-19T12:34:51;96662.06;;;24.49;61.90
32761;BME280;19126;47.472;7.850;2023-09-19T12:37:21;96667.22;;;24.71;62.52
32761;BME280;19126;47.472;7.850;2023-09-19T12:39:50;96664.59;;;24.81;60.55
32761;BME280;19126;47.472;7.850;2023-09-19T12:42:22;96665.13;;;24.78;58.61
32761;BME280;19126;47.472;7.850;2023-09-19T12:44:51;96657.25;;;24.56;64.22
32761;BME280;19126;47.472;7.850;2023-09-19T12:47:21;96650.91;;;24.19;69.99
32761;BME280;19126;47.472;7.850;2023-09-19T12:50:12;96658.97;;;23.76;72.62
32761;BME280;19126;47.472;7.850;2023-09-19T12:52:46;96656.41;;;23.54;73.70
32761;BME280;19126;47.472;7.850;2023-09-19T12:55:22;96652.41;;;23.24;73.71
32761;BME280;19126;47.472;7.850;2023-09-19T12:58:03;96646.16;;;22.86;77.80
32761;BME280;19126;47.472;7.850;2023-09-19T13:00:37;96650.34;;;22.76;79.41
32761;BME280;19126;47.472;7.850;2023-09-19T13:03:18;96646.59;;;22.77;81.15
32761;BME280;19126;47.472;7.850;2023-09-19T13:05:52;96634.97;;;22.66;80.33
32761;BME280;19126;47.472;7.850;2023-09-19T13:08:25;96636.75;;;22.83;73.71
32761;BME280;19126;47.472;7.850;2023-09-19T13:11:08;96637.59;;;22.89;68.87
32761;BME280;19126;47.472;7.850;2023-09-19T13:13:40;96633.53;;;23.13;66.90
32761;BME280;19126;47.472;7.850;2023-09-19T13:16:10;96626.97;;;23.26;69.69
32761;BME280;19126;47.472;7.850;2023-09-19T13:18:45;96628.66;;;23.38;66.84